Historyczne dane pomiarowe

Dodano dane terminowe – wersja testowa.

Dane z okresu 1951-2019

Wersja bazy: 1.34 [2019-03-16, lista zmian], aktualizacja planowana na 2019-04-15

Dane meteo z obszaru Polski uzyskane na podstawie danych udostępnionych przez Instytut Meteorologii i Gospodarki Wodnej – Państwowy Instytut Badawczy.

 

Wybierz Datę:    

       

TemperaturaWilgotnośćWiatrCiśnienieOpadyŚniegCzas trwania zjawisk
 Stacja t tx tn tng RH VA  wxwx mslp ppp RRR   cm mm wxwxwxwxwxwxwx
2010-02-25 6.1 11.8 0.8 -1.4 80.0 7.4- 2.6-- 992.9- 0.0--x- 5.9-------
2010-02-26 6.2 8.4 2.6 0.5 80.0 7.6- 2.9-- 986.0- 0.5--x- 0.0-------
2010-02-27 6.0 10.4 3.1 1.4 66.0 6.1- 4.4-- 994.9- 0.0--x- 5.5-------
2010-02-28 7.6 11.6 3.2 1.8 56.0 5.8- 4.6-- 984.4- 0.1--x- 0.8-------
2010-03-01 5.8 10.0 1.4 -0.3 62.0 5.7- 8.1-- 993.0- 0.1--x- 1.2-------
2010-03-02 2.5 6.2 -0.3 -1.7 69.0 5.0- 4.2--1008.1- 0.0--x- 2.8-------
2010-03-03 0.7 5.1 -5.1 -8.0 79.0 5.0- 3.6--1011.1- 0.1--x- 2.7-------
2010-03-04 -2.1 3.9 -7.3 -9.8 78.0 4.0- 2.1--1007.8- 0.4--x- 5.0-------
2010-03-05 -3.6 -0.8 -5.2 -8.3 73.0 3.4- 2.6--1010.9- 0.0--x- 1.9-------
2010-03-06 -3.2 0.2 -6.4 -8.4 66.0 3.1- 3.2--1012.0- 0.0--x- 4.0-------
2010-03-07 -2.8 2.1-10.2-12.6 75.0 3.7- 1.8--1021.7- 0.8--x- 5.4-------
2010-03-08 -1.8 1.6 -6.1 -9.4 77.0 4.1- 1.8--1018.8- 0.1--x- 4.0-------
2010-03-09 -3.6 2.7 -9.9-12.9 67.0 2.9- 1.4--1019.8- 0.0--x- 10.1-------
2010-03-10 -1.6 5.1 -9.0-11.4 64.0 3.3- 2.7--1018.4- 0.0--x- 9.9-------
2010-03-11 -0.6 5.8 -6.9-10.2 71.0 4.0- 2.6--1008.4- 0.0--x- 10.2-------
2010-03-12 0.8 3.6 -2.5 -2.5 91.0 6.0- 3.6--1004.5- 4.6--x- 0.0-------
2010-03-13 2.9 4.5 1.5 1.1 88.0 6.7- 4.6--1005.5- 2.9--x- 0.0-------
2010-03-14 3.5 6.6 -0.6 -2.1 87.0 6.8- 5.7--1003.1- 8.2--x- 0.0-------
2010-03-15 0.8 4.2 -1.1 -1.9 88.0 5.6- 3.7--1007.3- 1.5--x- 3.6-------
2010-03-16 1.8 3.7 -0.2 -1.0 81.0 5.6- 3.1--1011.8- 0.0--x- 0.3-------
2010-03-17 5.0 9.4 0.4 -1.6 76.0 6.6- 3.2--1015.4- 0.0--x- 0.1-------
2010-03-18 8.7 15.8 3.5 -0.3 61.0 6.7- 3.2--1014.0- 0.0--x- 6.9-------
2010-03-19 12.1 18.8 4.2 -0.3 54.0 7.6- 3.4--1008.7- 0.0--x- 4.5-------
2010-03-20 12.6 16.7 9.5 5.0 73.0 10.8- 3.7--1002.7- 1.0--x- 0.1-------
2010-03-21 12.0 16.9 6.0 3.8 81.0 11.4- 4.3--1002.6- 1.1--x- 0.4-------
2010-03-22 7.2 13.7 3.1 0.3 71.0 7.0- 1.9--1013.8- 0.0--x- 8.7-------
2010-03-23 9.1 14.9 1.0 -2.0 67.0 7.5- 3.0--1010.5- 0.0--x- 6.9-------
2010-03-24 9.0 17.6 -0.7 -2.9 70.0 7.8- 2.6--1009.5- 0.0--x- 6.4-------
2010-03-25 12.8 20.8 3.6 0.1 66.0 9.4- 2.5--1002.8- 0.0--x- 9.2-------
2010-03-26 16.3 23.5 7.0 6.8 58.0 10.3- 3.5-- 997.0- 2.7--x- 8.9-------
4178.8 ms

 

Źródłem pochodzenia danych jest Instytut Meteorologii i Gospodarki Wodnej – Państwowy Instytut Badawczy. Dane Instytutu Meteorologii i Gospodarki Wodnej – Państwowego Instytutu Badawczego zostały przetworzone.

Dane źródłowe można odnaleźć na stronie https://dane.imgw.pl